Time;durP1;ratioP1;P1;durP2;ratioP2;P2;SDS_P1;SDS_P2;PMS_P1;PMS_P2;Temp;Humidity;BMP_temperature;BMP_pressure;BME280_temperature;BME280_humidity;BME280_pressure;Samples;Min_cycle;Max_cycle;Signal;HPM_P1;HPM_P2
2023/12/16 00:02:25;;;;;;;23.85;11.63;;;;;;;2.94;100.00;102160.84;5094266;28;20146;-43
2023/12/16 00:04:53;;;;;;;23.65;12.00;;;;;;;2.84;100.00;102159.94;5102355;28;20039;-43
2023/12/16 00:07:21;;;;;;;20.42;10.82;;;;;;;2.54;100.00;102163.38;5114520;28;20044;-43
2023/12/16 00:09:50;;;;;;;18.55;9.75;;;;;;;2.58;100.00;102178.31;5114088;28;20044;-43
2023/12/16 00:12:20;;;;;;;16.67;9.00;;;;;;;2.57;100.00;102168.66;5113804;28;20185;-42
2023/12/16 00:14:49;;;;;;;20.70;9.98;;;;;;;2.51;100.00;102166.88;5114052;28;20134;-42
2023/12/16 00:17:19;;;;;;;16.75;8.98;;;;;;;2.51;100.00;102155.44;5106150;28;20378;-41
2023/12/16 00:19:47;;;;;;;20.13;8.90;;;;;;;2.56;100.00;102169.53;5093856;28;20086;-42
2023/12/16 00:22:15;;;;;;;17.08;8.35;;;;;;;2.50;100.00;102180.03;5093542;28;20106;-42
2023/12/16 00:24:44;;;;;;;16.88;8.35;;;;;;;2.49;100.00;102176.50;5093492;28;20044;-42
2023/12/16 00:27:12;;;;;;;19.00;8.50;;;;;;;2.40;100.00;102168.56;5093409;28;20052;-43
2023/12/16 00:29:41;;;;;;;17.98;8.52;;;;;;;2.41;100.00;102169.47;5093712;28;20421;-42
2023/12/16 00:32:09;;;;;;;16.25;8.27;;;;;;;2.65;100.00;102176.59;5093526;28;20055;-42
2023/12/16 00:34:38;;;;;;;15.77;8.40;;;;;;;2.47;100.00;102177.41;5103490;28;20086;-42
2023/12/16 00:37:08;;;;;;;20.88;8.90;;;;;;;2.40;100.00;102173.84;5113601;28;20043;-42
2023/12/16 00:39:36;;;;;;;14.57;7.53;;;;;;;2.37;100.00;102173.84;5113607;28;20491;-42
2023/12/16 00:42:07;;;;;;;17.33;8.15;;;;;;;2.36;100.00;102177.34;5114053;28;20154;-41
2023/12/16 00:44:35;;;;;;;15.93;7.88;;;;;;;2.37;100.00;102180.88;5110596;28;20040;-44
2023/12/16 00:47:04;;;;;;;17.58;8.13;;;;;;;2.34;100.00;102178.22;5093151;28;20052;-41
2023/12/16 00:49:32;;;;;;;17.35;8.00;;;;;;;2.44;100.00;102185.28;5093192;28;20051;-42
2023/12/16 00:52:03;;;;;;;17.48;8.30;;;;;;;2.54;100.00;102185.34;5092032;28;20066;-42
2023/12/16 00:54:31;;;;;;;17.88;8.48;;;;;;;2.47;100.00;102186.19;5093139;28;20048;-42
2023/12/16 00:57:00;;;;;;;16.98;7.88;;;;;;;2.46;100.00;102194.97;5093245;28;20048;-43
2023/12/16 00:59:28;;;;;;;17.52;9.02;;;;;;;2.52;100.00;102194.13;5100308;28;20047;-46
2023/12/16 01:01:56;;;;;;;17.48;8.32;;;;;;;2.48;100.00;102198.47;5113300;28;20505;-42
2023/12/16 01:04:25;;;;;;;16.55;9.23;;;;;;;2.10;100.00;102200.91;5113017;28;20126;-42
2023/12/16 01:06:53;;;;;;;16.38;8.30;;;;;;;1.96;100.00;102202.59;5101614;28;20071;-41
2023/12/16 01:09:24;;;;;;;16.10;8.85;;;;;;;1.89;100.00;102206.06;5092767;28;20072;-43
2023/12/16 01:11:53;;;;;;;15.95;8.50;;;;;;;2.13;100.00;102198.31;5092628;28;20156;-42
2023/12/16 01:14:21;;;;;;;18.70;9.55;;;;;;;2.13;100.00;102206.22;5092810;28;20044;-43
2023/12/16 01:16:49;;;;;;;18.25;8.90;;;;;;;2.13;100.00;102211.50;5111360;28;20047;-42
2023/12/16 01:19:18;;;;;;;20.15;9.98;;;;;;;1.48;100.00;102214.53;5112835;28;20039;-45
2023/12/16 01:21:47;;;;;;;18.52;9.77;;;;;;;1.48;100.00;102209.28;5113334;28;20040;-42
2023/12/16 01:24:16;;;;;;;21.80;10.35;;;;;;;1.57;100.00;102209.34;5102949;28;20518;-43
2023/12/16 01:26:46;;;;;;;21.25;10.13;;;;;;;1.76;100.00;102214.75;5092829;28;20568;-44
2023/12/16 01:29:14;;;;;;;21.20;10.80;;;;;;;1.61;100.00;102211.13;5092839;28;20051;-43
2023/12/16 01:31:42;;;;;;;17.35;9.80;;;;;;;1.70;100.00;102216.44;5105094;28;20126;-41
2023/12/16 01:34:11;;;;;;;21.35;10.27;;;;;;;1.76;100.00;102220.00;5113194;28;20468;-42
2023/12/16 01:36:39;;;;;;;21.42;10.45;;;;;;;1.80;100.00;102217.41;5112668;28;20047;-41
2023/12/16 01:39:08;;;;;;;23.13;10.20;;;;;;;1.82;100.00;102225.28;5094377;28;20048;-41
2023/12/16 01:41:37;;;;;;;22.92;11.50;;;;;;;1.86;100.00;102220.09;5092354;28;20050;-43
2023/12/16 01:44:06;;;;;;;20.75;11.20;;;;;;;1.75;100.00;102224.41;5097713;28;20048;-43
2023/12/16 01:46:35;;;;;;;28.13;12.55;;;;;;;1.57;100.00;102222.50;5109855;28;20052;-41
2023/12/16 01:49:04;;;;;;;28.23;13.77;;;;;;;1.46;100.00;102220.66;5112301;28;20048;-42
2023/12/16 01:51:33;;;;;;;30.38;14.95;;;;;;;1.12;100.00;102225.59;5096289;28;20044;-42
2023/12/16 01:54:02;;;;;;;29.30;15.07;;;;;;;1.12;100.00;102223.84;5091843;28;20044;-42
2023/12/16 01:56:31;;;;;;;28.98;15.40;;;;;;;1.02;100.00;102224.59;5091655;28;20097;-44
2023/12/16 01:58:59;;;;;;;27.05;14.57;;;;;;;1.27;100.00;102225.75;5098289;28;20050;-43
2023/12/16 02:01:29;;;;;;;29.00;14.45;;;;;;;1.37;100.00;102218.81;5112052;28;20047;-44
2023/12/16 02:03:59;;;;;;;28.75;14.98;;;;;;;1.41;100.00;102213.59;5111628;28;20473;-43
2023/12/16 02:06:28;;;;;;;30.63;15.77;;;;;;;1.41;100.00;102217.97;5091557;28;20083;-42
2023/12/16 02:08:56;;;;;;;30.58;15.27;;;;;;;1.42;100.00;102219.72;5091697;28;20058;-42
2023/12/16 02:11:25;;;;;;;32.92;15.82;;;;;;;1.40;100.00;102211.81;5095771;28;20441;-42
2023/12/16 02:13:53;;;;;;;31.33;15.30;;;;;;;1.48;100.00;102196.13;5107285;28;20047;-43
2023/12/16 02:16:22;;;;;;;30.40;15.25;;;;;;;1.47;100.00;102210.13;5091171;28;20373;-42
2023/12/16 02:18:53;;;;;;;35.67;17.10;;;;;;;1.52;100.00;102215.41;5091450;28;20050;-43
2023/12/16 02:21:21;;;;;;;31.38;15.40;;;;;;;1.52;100.00;102228.56;5095385;28;20561;-42
2023/12/16 02:23:51;;;;;;;31.90;16.25;;;;;;;1.63;100.00;102230.41;5111636;28;20088;-45
2023/12/16 02:26:19;;;;;;;34.72;16.63;;;;;;;1.65;100.00;102227.81;5109165;28;20044;-42
2023/12/16 02:28:48;;;;;;;35.25;16.33;;;;;;;1.59;100.00;102233.91;5091437;28;20043;-42
2023/12/16 02:31:16;;;;;;;31.92;15.40;;;;;;;1.67;100.00;102229.59;5091331;28;20134;-43
2023/12/16 02:33:45;;;;;;;32.47;15.35;;;;;;;1.48;100.00;102229.44;5090882;28;20048;-41
2023/12/16 02:36:14;;;;;;;38.28;16.67;;;;;;;1.65;100.00;102227.81;5090985;28;20135;-42
2023/12/16 02:38:42;;;;;;;35.55;15.25;;;;;;;1.62;100.00;102218.13;5110681;28;20044;-42
2023/12/16 02:41:12;;;;;;;32.28;14.98;;;;;;;1.40;100.00;102224.09;5102171;28;20665;-42
2023/12/16 02:43:40;;;;;;;31.42;15.45;;;;;;;1.57;100.00;102234.78;5091091;28;20044;-41
2023/12/16 02:46:10;;;;;;;31.48;15.88;;;;;;;1.37;100.00;102242.50;5090990;28;20067;-42
2023/12/16 02:48:38;;;;;;;30.35;15.18;;;;;;;1.44;100.00;102244.28;5097410;28;20048;-42
2023/12/16 02:51:08;;;;;;;31.23;16.65;;;;;;;1.40;100.00;102253.03;5111323;28;20074;-42
2023/12/16 02:53:36;;;;;;;33.70;16.42;;;;;;;1.50;100.00;102249.59;5111222;28;20232;-42
2023/12/16 02:56:05;;;;;;;31.58;16.27;;;;;;;1.63;100.00;102261.97;5111343;28;20087;-43
2023/12/16 02:58:34;;;;;;;29.13;15.68;;;;;;;1.58;100.00;102268.97;5111272;28;20060;-42
2023/12/16 03:01:03;;;;;;;31.10;15.63;;;;;;;1.59;100.00;102268.09;5111334;28;20134;-44
2023/12/16 03:03:31;;;;;;;34.05;15.73;;;;;;;1.48;100.00;102277.66;5097614;28;20044;-42
2023/12/16 03:06:05;;;;;;;31.35;15.23;;;;;;;1.48;100.00;102272.38;5090688;28;20052;-42
2023/12/16 03:08:34;;;;;;;30.50;14.93;;;;;;;1.43;100.00;102276.72;5108969;28;20048;-42
2023/12/16 03:11:03;;;;;;;30.52;15.02;;;;;;;1.48;100.00;102282.91;5111135;28;20047;-42
2023/12/16 03:13:34;;;;;;;27.77;14.38;;;;;;;1.48;100.00;102276.78;5111719;28;20052;-42
2023/12/16 03:16:02;;;;;;;28.38;14.85;;;;;;;1.32;100.00;102270.47;5115260;28;20097;-42
2023/12/16 03:18:30;;;;;;;28.33;14.85;;;;;;;1.33;100.00;102272.22;5096754;28;20059;-41
2023/12/16 03:20:59;;;;;;;25.20;14.10;;;;;;;1.42;100.00;102273.19;5114932;28;20412;-41
2023/12/16 03:23:27;;;;;;;30.60;15.52;;;;;;;1.42;100.00;102269.69;5115246;28;20089;-42
2023/12/16 03:25:55;;;;;;;26.60;14.40;;;;;;;1.62;100.00;102276.00;5114829;28;20056;-42
2023/12/16 03:28:24;;;;;;;26.52;13.27;;;;;;;1.70;100.00;102274.34;5106636;28;20050;-41
2023/12/16 03:30:54;;;;;;;28.45;14.02;;;;;;;1.74;100.00;102272.63;5094486;28;20135;-41
2023/12/16 03:33:22;;;;;;;31.05;15.02;;;;;;;1.75;100.00;102270.88;5094445;28;20055;-43
2023/12/16 03:35:53;;;;;;;27.13;13.57;;;;;;;1.58;100.00;102279.50;5094592;28;20473;-42
2023/12/16 03:38:22;;;;;;;26.05;13.27;;;;;;;1.47;100.00;102289.03;5094418;28;20044;-41
2023/12/16 03:40:50;;;;;;;27.58;13.38;;;;;;;1.67;100.00;102284.84;5113243;28;20048;-44
2023/12/16 03:43:19;;;;;;;27.27;14.50;;;;;;;1.66;100.00;102293.59;5114661;28;20088;-43
2023/12/16 03:45:47;;;;;;;27.98;13.88;;;;;;;1.87;100.00;102298.16;5114774;28;20082;-43
2023/12/16 03:48:17;;;;;;;28.73;13.80;;;;;;;1.96;100.00;102302.63;5114692;28;20048;-41
2023/12/16 03:50:46;;;;;;;28.90;14.00;;;;;;;1.89;100.00;102308.69;5114621;28;20130;-41
2023/12/16 03:53:14;;;;;;;26.42;13.80;;;;;;;1.70;100.00;102316.44;5097371;28;20047;-42
2023/12/16 03:55:43;;;;;;;26.15;13.57;;;;;;;1.72;100.00;102312.06;5107909;28;20039;-43
2023/12/16 03:58:11;;;;;;;26.55;13.90;;;;;;;1.62;100.00;102307.56;5114331;28;20051;-41
2023/12/16 04:00:39;;;;;;;24.90;13.32;;;;;;;1.68;100.00;102307.66;5114513;28;20464;-41
2023/12/16 04:03:08;;;;;;;21.83;12.68;;;;;;;1.55;100.00;102311.03;5093940;28;20123;-42
2023/12/16 04:05:38;;;;;;;24.55;12.13;;;;;;;1.57;100.00;102316.31;5093917;28;20051;-41
2023/12/16 04:08:06;;;;;;;26.13;12.90;;;;;;;1.44;100.00;102323.19;5093937;28;20048;-42
2023/12/16 04:10:34;;;;;;;26.17;13.80;;;;;;;1.37;100.00;102313.47;5094092;28;20117;-41
2023/12/16 04:13:03;;;;;;;31.35;16.55;;;;;;;1.32;100.00;102317.78;5106345;28;20075;-42
2023/12/16 04:15:31;;;;;;;34.50;19.23;;;;;;;1.57;100.00;102319.81;5114618;28;20043;-42
2023/12/16 04:18:00;;;;;;;34.30;18.85;;;;;;;1.76;100.00;102320.00;5114394;28;20119;-43
2023/12/16 04:20:30;;;;;;;26.20;14.43;;;;;;;1.58;100.00;102325.97;5113878;28;20134;-41
2023/12/16 04:23:00;;;;;;;26.95;14.95;;;;;;;1.68;100.00;102323.44;5114295;28;20058;-42
2023/12/16 04:25:28;;;;;;;25.10;13.57;;;;;;;1.70;100.00;102321.69;5108025;28;20192;-41
2023/12/16 04:27:56;;;;;;;23.00;12.10;;;;;;;1.38;100.00;102331.03;5093534;28;20059;-41
2023/12/16 04:30:25;;;;;;;22.65;11.10;;;;;;;1.50;100.00;102333.78;5093555;28;20052;-42
2023/12/16 04:32:53;;;;;;;21.73;11.77;;;;;;;1.61;100.00;102334.75;5108281;28;20050;-42
2023/12/16 04:35:21;;;;;;;23.88;11.18;;;;;;;1.68;100.00;102327.81;5113809;28;20070;-42
2023/12/16 04:37:49;;;;;;;18.77;10.38;;;;;;;1.70;100.00;102332.22;5101011;28;20047;-41
2023/12/16 04:40:20;;;;;;;22.30;10.88;;;;;;;1.72;100.00;102330.47;5093421;28;20510;-40
2023/12/16 04:42:48;;;;;;;21.77;10.95;;;;;;;1.72;100.00;102333.09;5093388;28;20043;-43
2023/12/16 04:45:17;;;;;;;21.45;11.18;;;;;;;1.65;100.00;102338.31;5093389;28;20044;-42
2023/12/16 04:47:45;;;;;;;18.50;10.27;;;;;;;1.78;100.00;102339.31;5093005;28;20051;-45
2023/12/16 04:50:14;;;;;;;20.52;9.80;;;;;;;1.67;100.00;102337.47;5093092;28;20048;-42
2023/12/16 04:52:42;;;;;;;19.00;10.10;;;;;;;1.79;100.00;102343.69;5073042;28;20055;-44
2023/12/16 04:55:11;;;;;;;16.17;9.48;;;;;;;1.51;100.00;102343.41;5080811;28;20521;-46
2023/12/16 04:57:41;;;;;;;19.65;9.40;;;;;;;1.61;100.00;102350.53;5092556;28;20178;-41
2023/12/16 05:00:10;;;;;;;19.13;9.82;;;;;;;1.76;100.00;102344.56;5092826;28;20077;-41
2023/12/16 05:02:39;;;;;;;19.05;9.40;;;;;;;1.80;100.00;102342.81;5099879;28;20044;-40
2023/12/16 05:05:08;;;;;;;20.77;10.05;;;;;;;1.49;100.00;102342.53;5092667;28;20048;-42
2023/12/16 05:07:37;;;;;;;21.70;10.02;;;;;;;1.54;100.00;102346.06;5101812;28;20045;-42
2023/12/16 05:10:10;;;;;;;20.95;10.45;;;;;;;1.76;100.00;102348.94;5113183;28;20469;-43
2023/12/16 05:12:40;;;;;;;24.83;11.30;;;;;;;1.62;100.00;102349.66;5114362;28;20079;-43
2023/12/16 05:15:11;;;;;;;23.65;10.85;;;;;;;1.80;100.00;102348.97;5113660;28;20542;-41
2023/12/16 05:17:40;;;;;;;20.40;10.75;;;;;;;1.71;100.00;102359.41;5102499;28;20055;-43
2023/12/16 05:20:09;;;;;;;20.77;10.45;;;;;;;1.59;100.00;102354.91;5093532;28;20040;-41
2023/12/16 05:22:38;;;;;;;21.52;10.38;;;;;;;1.46;100.00;102368.81;5092296;28;20481;-42
2023/12/16 05:25:07;;;;;;;21.48;10.57;;;;;;;1.57;100.00;102366.28;5092122;28;20048;-42
2023/12/16 05:27:35;;;;;;;19.52;9.90;;;;;;;1.48;100.00;102372.34;5102864;28;20039;-41
2023/12/16 05:30:05;;;;;;;21.95;10.63;;;;;;;1.47;100.00;102365.31;5112655;28;20043;-42
2023/12/16 05:32:39;;;;;;;;;;;;;;;1.53;100.00;102370.63;5112960;28;20048;-43
2023/12/16 05:35:08;;;;;;;21.77;10.35;;;;;;;1.50;100.00;102365.34;5093228;28;19920;-42
2023/12/16 05:37:36;;;;;;;22.05;10.00;;;;;;;1.60;100.00;102377.72;5092664;28;20136;-44
2023/12/16 05:40:06;;;;;;;18.98;9.73;;;;;;;1.48;100.00;102371.44;5095620;28;20144;-41
2023/12/16 05:42:34;;;;;;;21.50;10.45;;;;;;;1.59;100.00;102381.22;5112513;28;20123;-43
2023/12/16 05:45:04;;;;;;;19.20;9.88;;;;;;;1.61;100.00;102379.47;5110516;28;21350;-41
2023/12/16 05:47:33;;;;;;;23.17;10.65;;;;;;;1.64;100.00;102384.78;5100523;28;20432;-41
2023/12/16 05:50:03;;;;;;;20.00;9.82;;;;;;;1.80;100.00;102391.06;5099755;28;20048;-41
2023/12/16 05:52:32;;;;;;;24.70;10.88;;;;;;;1.85;100.00;102399.03;5093761;28;20091;-41
2023/12/16 05:55:01;;;;;;;19.75;10.23;;;;;;;1.83;100.00;102395.47;5091873;28;20058;-42
2023/12/16 05:57:29;;;;;;;22.48;10.43;;;;;;;1.66;100.00;102393.56;5101694;28;20044;-42
2023/12/16 06:00:00;;;;;;;20.80;10.25;;;;;;;1.73;100.00;102397.13;5111884;28;20048;-41
2023/12/16 06:02:29;;;;;;;20.42;10.20;;;;;;;1.87;100.00;102397.28;5094848;28;20139;-42
2023/12/16 06:04:57;;;;;;;24.80;11.60;;;;;;;1.83;100.00;102392.84;5100771;28;20048;-42
2023/12/16 06:07:27;;;;;;;23.40;10.25;;;;;;;1.76;100.00;102391.03;5111903;28;20138;-42
2023/12/16 06:09:55;;;;;;;22.33;11.18;;;;;;;1.63;100.00;102398.78;5111618;28;20051;-42
2023/12/16 06:12:23;;;;;;;25.25;12.15;;;;;;;1.63;100.00;102401.41;5071526;28;20044;-42
2023/12/16 06:14:52;;;;;;;21.60;10.68;;;;;;;1.64;100.00;102402.28;5071352;28;20049;-40
2023/12/16 06:17:20;;;;;;;23.20;11.50;;;;;;;1.80;100.00;102408.59;5075908;28;20560;-42
2023/12/16 06:19:49;;;;;;;25.23;12.82;;;;;;;1.53;100.00;102399.56;5111826;28;20075;-42
2023/12/16 06:22:17;;;;;;;25.63;13.15;;;;;;;1.35;100.00;102400.25;5111945;28;20541;-41
2023/12/16 06:24:47;;;;;;;27.35;14.18;;;;;;;1.22;100.00;102402.69;5112139;28;20056;-41
2023/12/16 06:27:15;;;;;;;27.50;13.13;;;;;;;1.34;100.00;102397.56;5111798;28;20484;-41
2023/12/16 06:29:44;;;;;;;23.67;13.10;;;;;;;1.19;100.00;102395.66;5102046;28;20048;-43
2023/12/16 06:32:12;;;;;;;28.10;13.68;;;;;;;1.30;100.00;102409.81;5091256;28;20044;-42
2023/12/16 06:34:40;;;;;;;26.92;13.88;;;;;;;1.25;100.00;102402.72;5091063;28;20569;-42
2023/12/16 06:37:09;;;;;;;26.60;13.77;;;;;;;1.31;100.00;102406.31;5091406;28;20054;-42
2023/12/16 06:39:38;;;;;;;25.02;13.77;;;;;;;1.30;100.00;102408.94;5093696;28;20063;-41
2023/12/16 06:42:08;;;;;;;27.85;14.27;;;;;;;1.45;100.00;102419.66;5111699;28;20051;-42
2023/12/16 06:44:37;;;;;;;26.35;14.35;;;;;;;1.31;100.00;102422.09;5110315;28;20048;-43
2023/12/16 06:47:05;;;;;;;27.75;14.45;;;;;;;1.42;100.00;102416.97;5091519;28;20047;-41
2023/12/16 06:49:34;;;;;;;27.13;14.50;;;;;;;1.33;100.00;102428.25;5090453;28;20062;-40
2023/12/16 06:52:02;;;;;;;27.75;14.73;;;;;;;1.39;100.00;102430.97;5096712;28;20084;-41
2023/12/16 06:54:31;;;;;;;26.88;13.65;;;;;;;1.48;100.00;102435.44;5111538;28;20086;-41
2023/12/16 06:56:59;;;;;;;27.33;13.95;;;;;;;1.33;100.00;102437.88;5111284;28;20044;-41
2023/12/16 06:59:30;;;;;;;25.20;14.10;;;;;;;1.44;100.00;102438.88;5111574;28;20175;-41
2023/12/16 07:01:59;;;;;;;27.80;13.85;;;;;;;1.48;100.00;102445.09;5111331;28;20054;-43
2023/12/16 07:04:28;;;;;;;26.20;14.23;;;;;;;1.65;100.00;102452.31;5102963;28;20052;-43
2023/12/16 07:06:56;;;;;;;27.42;13.88;;;;;;;1.70;100.00;102452.34;5090559;28;20048;-40
2023/12/16 07:09:24;;;;;;;28.15;13.48;;;;;;;1.71;100.00;102455.00;5090810;28;20055;-41
2023/12/16 07:11:52;;;;;;;29.17;14.60;;;;;;;1.71;100.00;102449.75;5090797;28;20040;-41
2023/12/16 07:14:21;;;;;;;30.60;15.13;;;;;;;1.79;100.00;102464.75;5110597;28;20043;-45
2023/12/16 07:16:51;;;;;;;27.42;14.05;;;;;;;1.78;100.00;102470.88;5110992;28;20044;-41
2023/12/16 07:19:23;;;;;;;26.10;12.85;;;;;;;1.78;100.00;102466.50;5090990;28;20131;-44
2023/12/16 07:21:51;;;;;;;26.85;13.82;;;;;;;1.82;100.00;102478.81;5091045;28;20044;-42
2023/12/16 07:24:20;;;;;;;25.90;13.77;;;;;;;1.99;100.00;102471.09;5095244;28;20071;-44
2023/12/16 07:26:48;;;;;;;28.08;13.43;;;;;;;2.00;100.00;102478.13;5111054;28;20112;-41
2023/12/16 07:29:17;;;;;;;29.45;14.15;;;;;;;2.13;100.00;102484.41;5110892;28;20502;-43
2023/12/16 07:31:47;;;;;;;26.27;13.32;;;;;;;2.20;100.00;102476.56;5109437;28;20075;-42
2023/12/16 07:34:17;;;;;;;26.10;13.25;;;;;;;2.23;100.00;102466.09;5090752;28;20056;-42
2023/12/16 07:36:45;;;;;;;28.02;13.73;;;;;;;2.37;100.00;102467.94;5090704;28;20066;-41
2023/12/16 07:39:14;;;;;;;26.75;13.60;;;;;;;2.36;100.00;102474.97;5090663;28;20051;-41
2023/12/16 07:41:43;;;;;;;26.10;14.20;;;;;;;2.38;100.00;102474.97;5097075;28;20090;-42
2023/12/16 07:44:11;;;;;;;25.63;13.63;;;;;;;2.33;100.00;102474.06;5100433;28;20051;-42
2023/12/16 07:46:41;;;;;;;29.35;14.02;;;;;;;2.35;100.00;102469.69;5096657;28;20036;-41
2023/12/16 07:49:10;;;;;;;26.80;13.55;;;;;;;2.30;100.00;102477.53;5098696;28;20062;-40
2023/12/16 07:51:43;;;;;;;23.90;13.52;;;;;;;2.45;100.00;102471.53;5098386;28;20048;-41
2023/12/16 07:54:13;;;;;;;27.17;14.38;;;;;;;2.59;100.00;102477.78;5099685;28;20067;-41
2023/12/16 07:56:41;;;;;;;28.35;13.90;;;;;;;2.43;100.00;102476.81;5097209;28;20143;-41
2023/12/16 07:59:10;;;;;;;26.42;13.57;;;;;;;2.27;100.00;102477.53;5099311;28;20075;-41
2023/12/16 08:01:38;;;;;;;25.05;13.57;;;;;;;2.44;100.00;102482.94;5114484;28;20441;-42
2023/12/16 08:04:07;;;;;;;29.63;14.55;;;;;;;2.47;100.00;102485.59;5101444;28;20040;-44
2023/12/16 08:06:35;;;;;;;26.08;12.43;;;;;;;2.56;100.00;102486.56;5100475;28;20078;-42
2023/12/16 08:09:05;;;;;;;24.48;12.95;;;;;;;2.72;100.00;102482.31;5102147;28;20075;-43
2023/12/16 08:11:34;;;;;;;25.17;11.82;;;;;;;2.88;100.00;102489.44;5100887;28;20503;-41
2023/12/16 08:14:02;;;;;;;42.75;13.93;;;;;;;2.99;100.00;102483.34;5102434;28;20054;-41
2023/12/16 08:16:30;;;;;;;31.48;13.88;;;;;;;3.27;100.00;102492.31;5101243;28;20139;-42
2023/12/16 08:19:02;;;;;;;20.98;11.13;;;;;;;3.15;100.00;102487.84;5101566;28;20063;-42
2023/12/16 08:21:30;;;;;;;25.77;12.00;;;;;;;3.26;100.00;102491.44;5100390;28;20086;-41
2023/12/16 08:23:59;;;;;;;23.23;11.23;;;;;;;3.36;100.00;102493.25;5101315;28;20047;-42
2023/12/16 08:26:28;;;;;;;22.17;11.13;;;;;;;3.45;100.00;102495.03;5100524;28;20083;-41
2023/12/16 08:28:57;;;;;;;23.55;11.50;;;;;;;3.41;100.00;102501.19;5102441;28;20140;-41
2023/12/16 08:31:25;;;;;;;24.33;11.38;;;;;;;3.60;100.00;102492.50;5100981;28;20105;-46
2023/12/16 08:33:54;;;;;;;23.58;12.00;;;;;;;3.66;100.00;102497.78;5101716;28;20561;-41
2023/12/16 08:36:22;;;;;;;22.17;12.05;;;;;;;3.61;100.00;102498.66;5101730;28;20048;-42
2023/12/16 08:38:51;;;;;;;22.63;11.60;;;;;;;3.55;100.00;102503.88;5101971;28;20047;-42
2023/12/16 08:41:19;;;;;;;27.70;12.57;;;;;;;3.56;100.00;102500.38;5100079;28;20044;-42
2023/12/16 08:43:49;;;;;;;23.42;11.75;;;;;;;3.64;100.00;102498.66;5096324;28;20047;-40
2023/12/16 08:46:22;;;;;;;23.52;12.50;;;;;;;3.73;100.00;102502.22;5095913;28;20484;-43
2023/12/16 08:48:50;;;;;;;21.65;11.38;;;;;;;3.85;100.00;102504.00;5100037;28;20046;-42
2023/12/16 08:51:21;;;;;;;21.65;12.23;;;;;;;3.88;100.00;102504.03;5097778;28;20579;-40
2023/12/16 08:53:49;;;;;;;21.08;11.70;;;;;;;3.86;100.00;102491.69;5098554;28;20043;-41
2023/12/16 08:56:18;;;;;;;25.17;11.80;;;;;;;3.89;100.00;102503.16;5099823;28;20044;-42
2023/12/16 08:58:47;;;;;;;20.85;11.30;;;;;;;3.95;100.00;102499.63;5095572;28;20056;-42
2023/12/16 09:01:16;;;;;;;23.75;12.30;;;;;;;4.02;100.00;102502.31;5096853;28;20453;-43
2023/12/16 09:03:45;;;;;;;23.17;12.00;;;;;;;3.98;100.00;102492.63;5113316;28;20400;-42
2023/12/16 09:06:14;;;;;;;26.83;12.82;;;;;;;4.21;100.00;102497.06;5102760;28;20134;-42
2023/12/16 09:08:42;;;;;;;23.58;12.05;;;;;;;4.15;100.00;102503.22;5102911;28;20403;-40
2023/12/16 09:11:11;;;;;;;24.92;12.77;;;;;;;4.28;100.00;102504.13;5100428;28;20861;-42
2023/12/16 09:13:39;;;;;;;25.73;12.52;;;;;;;4.23;100.00;102501.47;5100368;28;20493;-41
2023/12/16 09:16:08;;;;;;;22.35;11.05;;;;;;;4.42;100.00;102498.84;5100917;28;20052;-41
2023/12/16 09:18:38;;;;;;;23.77;13.15;;;;;;;4.29;100.00;102498.84;5103034;28;20387;-41
2023/12/16 09:21:07;;;;;;;25.27;12.80;;;;;;;4.44;100.00;102495.34;5110650;28;20514;-42
2023/12/16 09:23:36;;;;;;;23.95;12.60;;;;;;;4.63;100.00;102490.91;5090584;28;20478;-40
2023/12/16 09:26:05;;;;;;;24.83;12.52;;;;;;;4.67;100.00;102494.47;5103367;28;20055;-43
2023/12/16 09:28:33;;;;;;;23.90;12.05;;;;;;;4.60;100.00;102490.94;5113052;28;20048;-41
2023/12/16 09:31:01;;;;;;;23.35;12.57;;;;;;;4.77;100.00;102483.00;5093978;28;20048;-43
2023/12/16 09:33:30;;;;;;;23.15;12.43;;;;;;;4.75;100.00;102484.78;5107745;28;20047;-41
2023/12/16 09:36:00;;;;;;;23.98;11.75;;;;;;;4.81;100.00;102492.69;5112704;28;20385;-41
2023/12/16 09:38:30;;;;;;;23.90;12.20;;;;;;;4.88;100.00;102487.38;5106341;28;20050;-42
2023/12/16 09:40:59;;;;;;;21.75;11.75;;;;;;;4.79;100.00;102492.69;5098310;28;20052;-41
2023/12/16 09:43:33;;;;;;;21.13;11.55;;;;;;;4.92;100.00;102488.25;5107317;28;20123;-41
2023/12/16 09:46:02;;;;;;;23.73;12.32;;;;;;;5.16;100.00;102497.94;5098990;28;20048;-41
2023/12/16 09:48:31;;;;;;;24.17;12.27;;;;;;;5.11;100.00;102499.69;5092280;28;20059;-43
2023/12/16 09:51:01;;;;;;;20.88;10.63;;;;;;;5.08;100.00;102490.00;5107183;28;20047;-42
2023/12/16 09:53:29;;;;;;;24.55;12.43;;;;;;;5.25;100.00;102487.31;5112353;28;20039;-42
2023/12/16 09:55:59;;;;;;;22.45;11.75;;;;;;;5.21;100.00;102474.09;5112685;28;20197;-43
2023/12/16 09:58:28;;;;;;;21.00;11.02;;;;;;;5.25;100.00;102471.44;5112691;28;20044;-42
2023/12/16 10:00:57;;;;;;;21.42;10.90;;;;;;;5.25;100.00;102468.81;5099819;28;20040;-42
2023/12/16 10:03:26;;;;;;;19.27;10.20;;;;;;;5.16;100.00;102474.13;5092974;28;20080;-43
2023/12/16 10:05:55;;;;;;;20.10;10.90;;;;;;;5.32;100.00;102469.66;5092745;28;20040;-42
2023/12/16 10:08:25;;;;;;;19.27;10.40;;;;;;;5.41;100.00;102472.28;5099615;28;20377;-41
2023/12/16 10:10:58;;;;;;;21.58;11.10;;;;;;;5.39;100.00;102471.38;5111929;28;20177;-42
2023/12/16 10:13:55;;;;;;;20.77;10.90;;;;;;;5.60;100.00;102466.03;5100147;28;20154;-42
2023/12/16 10:16:24;;;;;;;20.05;10.93;;;;;;;5.68;100.00;102466.84;5108424;28;20050;-43
2023/12/16 10:18:53;;;;;;;19.10;10.95;;;;;;;5.67;100.00;102464.22;5093194;28;20168;-42
2023/12/16 10:21:23;;;;;;;20.33;9.90;;;;;;;5.61;100.00;102454.56;5104652;28;20413;-40
2023/12/16 10:23:56;;;;;;;19.70;10.35;;;;;;;5.81;100.00;102445.63;5108913;28;20488;-42
2023/12/16 10:26:25;;;;;;;19.48;10.38;;;;;;;6.03;100.00;102448.16;5109604;28;20091;-42
2023/12/16 10:28:54;;;;;;;18.73;10.80;;;;;;;6.00;100.00;102436.72;5109982;28;20043;-41
2023/12/16 10:31:24;;;;;;;17.52;9.52;;;;;;;6.20;100.00;102433.91;5109977;28;20051;-42
2023/12/16 10:33:53;;;;;;;21.45;10.63;;;;;;;6.22;100.00;102435.66;5111379;28;20134;-41
2023/12/16 10:36:21;;;;;;;18.95;10.25;;;;;;;6.36;100.00;102439.97;5111134;28;20055;-42
2023/12/16 10:38:49;;;;;;;19.13;9.73;;;;;;;6.40;100.00;102434.66;5111706;28;20405;-42
2023/12/16 10:41:21;;;;;;;17.95;8.82;;;;;;;6.26;100.00;102434.72;5111607;28;20126;-42
2023/12/16 10:43:49;;;;;;;18.20;9.02;;;;;;;6.35;100.00;102427.59;5111747;28;20211;-43
2023/12/16 10:46:22;;;;;;;15.70;8.90;;;;;;;6.38;100.00;102423.19;5111828;28;20052;-42
2023/12/16 10:48:54;;;;;;;16.00;8.38;;;;;;;6.42;100.00;102419.59;5111628;28;20058;-42
2023/12/16 10:51:25;;;;;;;16.30;8.70;;;;;;;6.42;100.00;102427.53;5111863;28;20122;-42
2023/12/16 10:54:00;;;;;;;14.55;8.00;;;;;;;6.57;100.00;102424.78;5111553;28;20463;-42
2023/12/16 10:56:32;;;;;;;14.60;8.30;;;;;;;6.65;100.00;102427.31;5111310;28;20054;-42
2023/12/16 10:59:05;;;;;;;18.33;9.15;;;;;;;6.62;100.00;102437.97;5111640;28;20062;-41
2023/12/16 11:01:35;;;;;;;18.45;9.30;;;;;;;6.71;100.00;102435.25;5111692;28;20160;-43
2023/12/16 11:04:10;;;;;;;16.27;8.40;;;;;;;6.70;100.00;102445.88;5111848;28;20381;-42
2023/12/16 11:06:43;;;;;;;14.60;7.97;;;;;;;6.53;100.00;102443.34;5111377;28;20039;-42
2023/12/16 11:09:13;;;;;;;17.10;8.80;;;;;;;6.59;100.00;102435.38;5111784;28;20040;-42
2023/12/16 11:11:43;;;;;;;16.02;8.02;;;;;;;6.72;100.00;102434.34;5111661;28;20184;-41
2023/12/16 11:14:13;;;;;;;17.08;8.35;;;;;;;6.57;100.00;102426.56;5110345;28;20134;-42
2023/12/16 11:16:51;;;;;;;15.13;8.25;;;;;;;6.68;100.00;102416.72;5111553;28;20043;-42
2023/12/16 11:19:20;;;;;;;15.40;8.30;;;;;;;6.68;100.00;102431.75;5111825;28;20123;-41
2023/12/16 11:21:53;;;;;;;17.73;9.00;;;;;;;6.59;100.00;102438.00;5111639;28;20182;-41